sensor_id;sensor_type;location;lat;lon;timestamp;pressure;altitude;pressure_sealevel;temperature;humidity
53619;BME280;68717;53.040;18.488;2024-02-21T00:00:12;101690.00;;;7.04;100.00
53619;BME280;68717;53.040;18.488;2024-02-21T00:00:45;101690.06;;;7.03;100.00
53619;BME280;68717;53.040;18.488;2024-02-21T00:01:18;101684.66;;;7.04;100.00
53619;BME280;68717;53.040;18.488;2024-02-21T00:01:33;101687.34;;;7.04;100.00
53619;BME280;68717;53.040;18.488;2024-02-21T00:01:46;101686.47;;;7.04;100.00
53619;BME280;68717;53.040;18.488;2024-02-21T00:01:59;101682.97;;;7.03;100.00
53619;BME280;68717;53.040;18.488;2024-02-21T00:02:12;101690.97;;;7.03;100.00
53619;BME280;68717;53.040;18.488;2024-02-21T00:02:25;101682.97;;;7.03;100.00
53619;BME280;68717;53.040;18.488;2024-02-21T00:02:39;101686.47;;;7.04;100.00
53619;BME280;68717;53.040;18.488;2024-02-21T00:02:52;101682.97;;;7.03;100.00
53619;BME280;68717;53.040;18.488;2024-02-21T00:03:06;101685.63;;;7.03;100.00
53619;BME280;68717;53.040;18.488;2024-02-21T00:03:19;101685.63;;;7.03;100.00
53619;BME280;68717;53.040;18.488;2024-02-21T00:03:32;101682.09;;;7.03;100.00
53619;BME280;68717;53.040;18.488;2024-02-21T00:03:47;101682.97;;;7.03;100.00
53619;BME280;68717;53.040;18.488;2024-02-21T00:04:00;101690.97;;;7.03;100.00
53619;BME280;68717;53.040;18.488;2024-02-21T00:04:13;101688.28;;;7.03;100.00
53619;BME280;68717;53.040;18.488;2024-02-21T00:04:27;101688.28;;;7.03;100.00
53619;BME280;68717;53.040;18.488;2024-02-21T00:04:43;101690.00;;;7.04;100.00
53619;BME280;68717;53.040;18.488;2024-02-21T00:04:56;101682.00;;;7.04;100.00
53619;BME280;68717;53.040;18.488;2024-02-21T00:05:09;101688.19;;;7.05;100.00
53619;BME280;68717;53.040;18.488;2024-02-21T00:05:23;101689.03;;;7.05;100.00
53619;BME280;68717;53.040;18.488;2024-02-21T00:05:36;101690.78;;;7.06;100.00
53619;BME280;68717;53.040;18.488;2024-02-21T00:05:49;101696.09;;;7.06;100.00
53619;BME280;68717;53.040;18.488;2024-02-21T00:06:03;101685.44;;;7.06;100.00
53619;BME280;68717;53.040;18.488;2024-02-21T00:06:16;101692.47;;;7.07;100.00
53619;BME280;68717;53.040;18.488;2024-02-21T00:06:30;101685.44;;;7.06;100.00
53619;BME280;68717;53.040;18.488;2024-02-21T00:06:43;101689.81;;;7.07;100.00
53619;BME280;68717;53.040;18.488;2024-02-21T00:06:56;101688.13;;;7.06;100.00
53619;BME280;68717;53.040;18.488;2024-02-21T00:07:08;101695.16;;;7.07;100.00
53619;BME280;68717;53.040;18.488;2024-02-21T00:07:22;101692.47;;;7.07;100.00
53619;BME280;68717;53.040;18.488;2024-02-21T00:07:35;101690.78;;;7.06;100.00
53619;BME280;68717;53.040;18.488;2024-02-21T00:07:48;101695.16;;;7.07;100.00
53619;BME280;68717;53.040;18.488;2024-02-21T00:08:02;101688.13;;;7.06;100.00
53619;BME280;68717;53.040;18.488;2024-02-21T00:08:17;101691.63;;;7.07;100.00
53619;BME280;68717;53.040;18.488;2024-02-21T00:08:30;101693.44;;;7.06;100.00
53619;BME280;68717;53.040;18.488;2024-02-21T00:08:43;101687.16;;;7.07;100.00
53619;BME280;68717;53.040;18.488;2024-02-21T00:08:56;101696.97;;;7.07;100.00
53619;BME280;68717;53.040;18.488;2024-02-21T00:09:09;101690.69;;;7.08;100.00
53619;BME280;68717;53.040;18.488;2024-02-21T00:09:22;101692.47;;;7.07;100.00
53619;BME280;68717;53.040;18.488;2024-02-21T00:09:36;101691.56;;;7.08;100.00
53619;BME280;68717;53.040;18.488;2024-02-21T00:09:49;101690.69;;;7.08;100.00
53619;BME280;68717;53.040;18.488;2024-02-21T00:10:02;101693.38;;;7.08;100.00
53619;BME280;68717;53.040;18.488;2024-02-21T00:10:17;101687.16;;;7.07;100.00
53619;BME280;68717;53.040;18.488;2024-02-21T00:10:31;101687.16;;;7.07;100.00
53619;BME280;68717;53.040;18.488;2024-02-21T00:10:44;101690.69;;;7.08;100.00
53619;BME280;68717;53.040;18.488;2024-02-21T00:10:58;101691.56;;;7.08;100.00
53619;BME280;68717;53.040;18.488;2024-02-21T00:11:11;101697.81;;;7.07;100.00
53619;BME280;68717;53.040;18.488;2024-02-21T00:11:24;101690.69;;;7.08;100.00
53619;BME280;68717;53.040;18.488;2024-02-21T00:11:37;101689.81;;;7.07;100.00
53619;BME280;68717;53.040;18.488;2024-02-21T00:11:50;101696.03;;;7.08;100.00
53619;BME280;68717;53.040;18.488;2024-02-21T00:12:04;101693.38;;;7.08;100.00
53619;BME280;68717;53.040;18.488;2024-02-21T00:12:18;101691.56;;;7.08;100.00
53619;BME280;68717;53.040;18.488;2024-02-21T00:12:31;101688.88;;;7.08;100.00
53619;BME280;68717;53.040;18.488;2024-02-21T00:12:44;101690.69;;;7.08;100.00
53619;BME280;68717;53.040;18.488;2024-02-21T00:12:57;101691.56;;;7.08;100.00
53619;BME280;68717;53.040;18.488;2024-02-21T00:13:11;101688.88;;;7.08;100.00
53619;BME280;68717;53.040;18.488;2024-02-21T00:13:24;101694.22;;;7.08;100.00
53619;BME280;68717;53.040;18.488;2024-02-21T00:13:38;101695.16;;;7.07;100.00
53619;BME280;68717;53.040;18.488;2024-02-21T00:13:51;101694.22;;;7.08;100.00
53619;BME280;68717;53.040;18.488;2024-02-21T00:14:05;101687.06;;;7.09;100.00
53619;BME280;68717;53.040;18.488;2024-02-21T00:14:18;101695.91;;;7.09;100.00
53619;BME280;68717;53.040;18.488;2024-02-21T00:14:31;101687.06;;;7.09;100.00
53619;BME280;68717;53.040;18.488;2024-02-21T00:14:44;101690.59;;;7.09;100.00
53619;BME280;68717;53.040;18.488;2024-02-21T00:14:57;101689.75;;;7.09;100.00
53619;BME280;68717;53.040;18.488;2024-02-21T00:15:10;101686.13;;;7.10;100.00
53619;BME280;68717;53.040;18.488;2024-02-21T00:15:23;101687.91;;;7.09;100.00
53619;BME280;68717;53.040;18.488;2024-02-21T00:15:37;101690.59;;;7.09;100.00
53619;BME280;68717;53.040;18.488;2024-02-21T00:15:50;101685.25;;;7.09;100.00
53619;BME280;68717;53.040;18.488;2024-02-21T00:16:03;101687.00;;;7.10;100.00
53619;BME280;68717;53.040;18.488;2024-02-21T00:16:19;101687.00;;;7.10;100.00
53619;BME280;68717;53.040;18.488;2024-02-21T00:16:32;101687.00;;;7.10;100.00
53619;BME280;68717;53.040;18.488;2024-02-21T00:16:45;101682.50;;;7.11;100.00
53619;BME280;68717;53.040;18.488;2024-02-21T00:16:58;101692.31;;;7.10;100.00
53619;BME280;68717;53.040;18.488;2024-02-21T00:17:11;101682.59;;;7.09;100.00
53619;BME280;68717;53.040;18.488;2024-02-21T00:17:24;101681.66;;;7.10;100.00
53619;BME280;68717;53.040;18.488;2024-02-21T00:17:38;101687.00;;;7.10;100.00
53619;BME280;68717;53.040;18.488;2024-02-21T00:17:52;101688.69;;;7.11;100.00
53619;BME280;68717;53.040;18.488;2024-02-21T00:18:05;101679.00;;;7.10;100.00
53619;BME280;68717;53.040;18.488;2024-02-21T00:18:20;101677.19;;;7.11;100.00
53619;BME280;68717;53.040;18.488;2024-02-21T00:18:33;101683.38;;;7.11;100.00
53619;BME280;68717;53.040;18.488;2024-02-21T00:18:47;101682.50;;;7.11;100.00
53619;BME280;68717;53.040;18.488;2024-02-21T00:19:01;101682.50;;;7.11;100.00
53619;BME280;68717;53.040;18.488;2024-02-21T00:19:14;101677.09;;;7.12;100.00
53619;BME280;68717;53.040;18.488;2024-02-21T00:19:27;101683.38;;;7.11;100.00
53619;BME280;68717;53.040;18.488;2024-02-21T00:19:40;101681.59;;;7.12;100.00
53619;BME280;68717;53.040;18.488;2024-02-21T00:19:54;101686.91;;;7.12;100.00
53619;BME280;68717;53.040;18.488;2024-02-21T00:20:07;101683.38;;;7.11;100.00
53619;BME280;68717;53.040;18.488;2024-02-21T00:20:22;101678.03;;;7.11;100.00
53619;BME280;68717;53.040;18.488;2024-02-21T00:20:35;101685.09;;;7.12;100.00
53619;BME280;68717;53.040;18.488;2024-02-21T00:20:48;101686.03;;;7.11;100.00
53619;BME280;68717;53.040;18.488;2024-02-21T00:21:01;101685.09;;;7.12;100.00
53619;BME280;68717;53.040;18.488;2024-02-21T00:21:14;101685.09;;;7.12;100.00
53619;BME280;68717;53.040;18.488;2024-02-21T00:21:31;101690.44;;;7.12;100.00
53619;BME280;68717;53.040;18.488;2024-02-21T00:21:44;101682.44;;;7.12;100.00
53619;BME280;68717;53.040;18.488;2024-02-21T00:21:57;101682.44;;;7.12;100.00
53619;BME280;68717;53.040;18.488;2024-02-21T00:22:10;101683.28;;;7.13;100.00
53619;BME280;68717;53.040;18.488;2024-02-21T00:22:24;101678.81;;;7.13;100.00
53619;BME280;68717;53.040;18.488;2024-02-21T00:22:37;101684.13;;;7.13;100.00
53619;BME280;68717;53.040;18.488;2024-02-21T00:22:50;101685.09;;;7.12;100.00
53619;BME280;68717;53.040;18.488;2024-02-21T00:23:04;101674.44;;;7.12;100.00
53619;BME280;68717;53.040;18.488;2024-02-21T00:23:17;101681.47;;;7.13;100.00
53619;BME280;68717;53.040;18.488;2024-02-21T00:23:30;101677.94;;;7.13;100.00
53619;BME280;68717;53.040;18.488;2024-02-21T00:23:43;101685.09;;;7.12;100.00
53619;BME280;68717;53.040;18.488;2024-02-21T00:23:58;101678.91;;;7.12;100.00
53619;BME280;68717;53.040;18.488;2024-02-21T00:24:11;101681.47;;;7.13;100.00
53619;BME280;68717;53.040;18.488;2024-02-21T00:24:25;101684.25;;;7.12;100.00
53619;BME280;68717;53.040;18.488;2024-02-21T00:24:38;101680.63;;;7.13;100.00
53619;BME280;68717;53.040;18.488;2024-02-21T00:24:51;101681.59;;;7.12;100.00
53619;BME280;68717;53.040;18.488;2024-02-21T00:25:04;101682.44;;;7.12;100.00
53619;BME280;68717;53.040;18.488;2024-02-21T00:25:17;101682.44;;;7.12;100.00
53619;BME280;68717;53.040;18.488;2024-02-21T00:25:30;101679.75;;;7.12;100.00
53619;BME280;68717;53.040;18.488;2024-02-21T00:25:44;101682.44;;;7.12;100.00
53619;BME280;68717;53.040;18.488;2024-02-21T00:25:57;101680.63;;;7.13;100.00
53619;BME280;68717;53.040;18.488;2024-02-21T00:26:11;101677.09;;;7.12;100.00
53619;BME280;68717;53.040;18.488;2024-02-21T00:26:25;101679.75;;;7.12;100.00
53619;BME280;68717;53.040;18.488;2024-02-21T00:26:38;101679.75;;;7.12;100.00
53619;BME280;68717;53.040;18.488;2024-02-21T00:26:51;101681.47;;;7.13;100.00
53619;BME280;68717;53.040;18.488;2024-02-21T00:27:05;101677.09;;;7.12;100.00
53619;BME280;68717;53.040;18.488;2024-02-21T00:27:18;101680.63;;;7.13;100.00
53619;BME280;68717;53.040;18.488;2024-02-21T00:27:31;101679.75;;;7.12;100.00
53619;BME280;68717;53.040;18.488;2024-02-21T00:27:45;101679.75;;;7.12;100.00
53619;BME280;68717;53.040;18.488;2024-02-21T00:27:58;101679.75;;;7.12;100.00
53619;BME280;68717;53.040;18.488;2024-02-21T00:28:11;101680.53;;;7.14;100.00
53619;BME280;68717;53.040;18.488;2024-02-21T00:28:24;101683.22;;;7.14;100.00
53619;BME280;68717;53.040;18.488;2024-02-21T00:28:37;101675.22;;;7.14;100.00
53619;BME280;68717;53.040;18.488;2024-02-21T00:28:50;101676.13;;;7.13;100.00
53619;BME280;68717;53.040;18.488;2024-02-21T00:29:03;101674.31;;;7.14;100.00
53619;BME280;68717;53.040;18.488;2024-02-21T00:29:20;101677.00;;;7.14;100.00
53619;BME280;68717;53.040;18.488;2024-02-21T00:29:34;101686.81;;;7.13;100.00
53619;BME280;68717;53.040;18.488;2024-02-21T00:29:47;101678.72;;;7.15;100.00
53619;BME280;68717;53.040;18.488;2024-02-21T00:30:00;101677.88;;;7.14;100.00
53619;BME280;68717;53.040;18.488;2024-02-21T00:30:13;101679.59;;;7.15;100.00
53619;BME280;68717;53.040;18.488;2024-02-21T00:30:26;101679.59;;;7.15;100.00
53619;BME280;68717;53.040;18.488;2024-02-21T00:30:40;101675.22;;;7.14;100.00
53619;BME280;68717;53.040;18.488;2024-02-21T00:30:53;101684.91;;;7.15;100.00
53619;BME280;68717;53.040;18.488;2024-02-21T00:31:10;101680.44;;;7.16;100.00
53619;BME280;68717;53.040;18.488;2024-02-21T00:31:24;101680.44;;;7.16;100.00
53619;BME280;68717;53.040;18.488;2024-02-21T00:31:37;101680.44;;;7.16;100.00
53619;BME280;68717;53.040;18.488;2024-02-21T00:31:50;101676.91;;;7.15;100.00
53619;BME280;68717;53.040;18.488;2024-02-21T00:32:04;101679.59;;;7.15;100.00
53619;BME280;68717;53.040;18.488;2024-02-21T00:32:17;101682.16;;;7.17;100.00
53619;BME280;68717;53.040;18.488;2024-02-21T00:32:30;101674.16;;;7.17;100.00
53619;BME280;68717;53.040;18.488;2024-02-21T00:32:43;101675.97;;;7.16;100.00
53619;BME280;68717;53.040;18.488;2024-02-21T00:32:57;101681.31;;;7.16;100.00
53619;BME280;68717;53.040;18.488;2024-02-21T00:33:10;101677.75;;;7.16;100.00
53619;BME280;68717;53.040;18.488;2024-02-21T00:33:23;101678.66;;;7.16;100.00
53619;BME280;68717;53.040;18.488;2024-02-21T00:33:36;101681.31;;;7.16;100.00
53619;BME280;68717;53.040;18.488;2024-02-21T00:33:51;101679.50;;;7.17;100.00
53619;BME280;68717;53.040;18.488;2024-02-21T00:34:04;101681.31;;;7.16;100.00
53619;BME280;68717;53.040;18.488;2024-02-21T00:34:17;101676.84;;;7.17;100.00
53619;BME280;68717;53.040;18.488;2024-02-21T00:34:30;101678.66;;;7.16;100.00
53619;BME280;68717;53.040;18.488;2024-02-21T00:34:44;101678.53;;;7.18;100.00
53619;BME280;68717;53.040;18.488;2024-02-21T00:34:57;101680.34;;;7.17;100.00
53619;BME280;68717;53.040;18.488;2024-02-21T00:35:11;101683.03;;;7.17;100.00
53619;BME280;68717;53.040;18.488;2024-02-21T00:35:25;101676.84;;;7.17;100.00
53619;BME280;68717;53.040;18.488;2024-02-21T00:35:38;101677.69;;;7.17;100.00
53619;BME280;68717;53.040;18.488;2024-02-21T00:35:51;101677.69;;;7.17;100.00
53619;BME280;68717;53.040;18.488;2024-02-21T00:36:04;101673.19;;;7.18;100.00
53619;BME280;68717;53.040;18.488;2024-02-21T00:36:17;101676.75;;;7.18;100.00
53619;BME280;68717;53.040;18.488;2024-02-21T00:36:31;101674.09;;;7.18;100.00
53619;BME280;68717;53.040;18.488;2024-02-21T00:36:44;101680.28;;;7.19;100.00
53619;BME280;68717;53.040;18.488;2024-02-21T00:36:57;101679.44;;;7.18;100.00
53619;BME280;68717;53.040;18.488;2024-02-21T00:37:10;101677.59;;;7.19;100.00
53619;BME280;68717;53.040;18.488;2024-02-21T00:37:23;101672.28;;;7.19;100.00
53619;BME280;68717;53.040;18.488;2024-02-21T00:37:36;101674.09;;;7.18;100.00
53619;BME280;68717;53.040;18.488;2024-02-21T00:37:51;101674.94;;;7.19;100.00
53619;BME280;68717;53.040;18.488;2024-02-21T00:38:04;101671.31;;;7.20;100.00
53619;BME280;68717;53.040;18.488;2024-02-21T00:38:18;101676.66;;;7.20;100.00
53619;BME280;68717;53.040;18.488;2024-02-21T00:38:31;101679.31;;;7.20;100.00
53619;BME280;68717;53.040;18.488;2024-02-21T00:38:44;101674.88;;;7.21;100.00
53619;BME280;68717;53.040;18.488;2024-02-21T00:38:57;101678.38;;;7.21;100.00
53619;BME280;68717;53.040;18.488;2024-02-21T00:39:12;101679.22;;;7.22;100.00
53619;BME280;68717;53.040;18.488;2024-02-21T00:39:25;101676.56;;;7.22;100.00
53619;BME280;68717;53.040;18.488;2024-02-21T00:39:38;101677.53;;;7.21;100.00
53619;BME280;68717;53.040;18.488;2024-02-21T00:39:51;101672.19;;;7.21;100.00
53619;BME280;68717;53.040;18.488;2024-02-21T00:40:05;101672.19;;;7.21;100.00
53619;BME280;68717;53.040;18.488;2024-02-21T00:40:20;101674.88;;;7.21;100.00
53619;BME280;68717;53.040;18.488;2024-02-21T00:40:35;101679.22;;;7.22;100.00
53619;BME280;68717;53.040;18.488;2024-02-21T00:40:48;101675.72;;;7.21;100.00
53619;BME280;68717;53.040;18.488;2024-02-21T00:41:01;101682.75;;;7.22;100.00
53619;BME280;68717;53.040;18.488;2024-02-21T00:41:14;101679.22;;;7.22;100.00
53619;BME280;68717;53.040;18.488;2024-02-21T00:41:27;101675.59;;;7.23;100.00
53619;BME280;68717;53.040;18.488;2024-02-21T00:41:40;101673.91;;;7.22;100.00
53619;BME280;68717;53.040;18.488;2024-02-21T00:41:53;101679.22;;;7.22;100.00
53619;BME280;68717;53.040;18.488;2024-02-21T00:42:06;101678.28;;;7.23;100.00
53619;BME280;68717;53.040;18.488;2024-02-21T00:42:20;101671.16;;;7.23;100.00
53619;BME280;68717;53.040;18.488;2024-02-21T00:42:34;101676.50;;;7.23;100.00
53619;BME280;68717;53.040;18.488;2024-02-21T00:42:47;101677.34;;;7.24;100.00
53619;BME280;68717;53.040;18.488;2024-02-21T00:43:00;101675.59;;;7.23;100.00
53619;BME280;68717;53.040;18.488;2024-02-21T00:43:13;101673.81;;;7.23;100.00
53619;BME280;68717;53.040;18.488;2024-02-21T00:43:26;101675.59;;;7.23;100.00
53619;BME280;68717;53.040;18.488;2024-02-21T00:43:39;101676.50;;;7.23;100.00
53619;BME280;68717;53.040;18.488;2024-02-21T00:43:53;101671.16;;;7.23;100.00
53619;BME280;68717;53.040;18.488;2024-02-21T00:44:07;101673.81;;;7.23;100.00
53619;BME280;68717;53.040;18.488;2024-02-21T00:44:20;101673.81;;;7.23;100.00
53619;BME280;68717;53.040;18.488;2024-02-21T00:44:33;101674.66;;;7.24;100.00
53619;BME280;68717;53.040;18.488;2024-02-21T00:44:47;101670.28;;;7.23;100.00
53619;BME280;68717;53.040;18.488;2024-02-21T00:45:00;101671.16;;;7.23;100.00
53619;BME280;68717;53.040;18.488;2024-02-21T00:45:13;101670.28;;;7.23;100.00
53619;BME280;68717;53.040;18.488;2024-02-21T00:45:26;101670.28;;;7.23;100.00
53619;BME280;68717;53.040;18.488;2024-02-21T00:45:39;101674.66;;;7.24;100.00
53619;BME280;68717;53.040;18.488;2024-02-21T00:45:52;101672.94;;;7.23;100.00
53619;BME280;68717;53.040;18.488;2024-02-21T00:46:09;101677.34;;;7.24;100.00
53619;BME280;68717;53.040;18.488;2024-02-21T00:46:22;101678.28;;;7.23;100.00
53619;BME280;68717;53.040;18.488;2024-02-21T00:46:35;101672.09;;;7.22;100.00
53619;BME280;68717;53.040;18.488;2024-02-21T00:46:48;101674.75;;;7.22;100.00
53619;BME280;68717;53.040;18.488;2024-02-21T00:47:01;101675.59;;;7.23;100.00
53619;BME280;68717;53.040;18.488;2024-02-21T00:47:14;101669.34;;;7.24;100.00
53619;BME280;68717;53.040;18.488;2024-02-21T00:47:27;101670.28;;;7.23;100.00
53619;BME280;68717;53.040;18.488;2024-02-21T00:47:40;101664.09;;;7.22;100.00
53619;BME280;68717;53.040;18.488;2024-02-21T00:47:54;101669.41;;;7.22;100.00
53619;BME280;68717;53.040;18.488;2024-02-21T00:48:08;101668.56;;;7.22;100.00
53619;BME280;68717;53.040;18.488;2024-02-21T00:48:21;101671.16;;;7.23;100.00
53619;BME280;68717;53.040;18.488;2024-02-21T00:48:34;101672.94;;;7.23;100.00
53619;BME280;68717;53.040;18.488;2024-02-21T00:48:47;101671.22;;;7.22;100.00
53619;BME280;68717;53.040;18.488;2024-02-21T00:49:02;101665.91;;;7.22;100.00
53619;BME280;68717;53.040;18.488;2024-02-21T00:49:15;101667.59;;;7.23;100.00
53619;BME280;68717;53.040;18.488;2024-02-21T00:49:28;101664.94;;;7.23;100.00
53619;BME280;68717;53.040;18.488;2024-02-21T00:49:42;101664.09;;;7.22;100.00
53619;BME280;68717;53.040;18.488;2024-02-21T00:49:55;101670.28;;;7.23;100.00
53619;BME280;68717;53.040;18.488;2024-02-21T00:50:09;101671.16;;;7.23;100.00
53619;BME280;68717;53.040;18.488;2024-02-21T00:50:22;101674.75;;;7.22;100.00
53619;BME280;68717;53.040;18.488;2024-02-21T00:50:35;101662.28;;;7.23;100.00
53619;BME280;68717;53.040;18.488;2024-02-21T00:50:50;101666.75;;;7.22;100.00
53619;BME280;68717;53.040;18.488;2024-02-21T00:51:03;101668.56;;;7.22;100.00
53619;BME280;68717;53.040;18.488;2024-02-21T00:51:16;101667.72;;;7.21;100.00
53619;BME280;68717;53.040;18.488;2024-02-21T00:51:29;101662.38;;;7.21;100.00
53619;BME280;68717;53.040;18.488;2024-02-21T00:51:43;101664.19;;;7.21;100.00
53619;BME280;68717;53.040;18.488;2024-02-21T00:51:57;101665.91;;;7.22;100.00
53619;BME280;68717;53.040;18.488;2024-02-21T00:52:09;101670.38;;;7.21;100.00
53619;BME280;68717;53.040;18.488;2024-02-21T00:52:22;101665.03;;;7.21;100.00
53619;BME280;68717;53.040;18.488;2024-02-21T00:52:35;101665.03;;;7.21;100.00
53619;BME280;68717;53.040;18.488;2024-02-21T00:52:48;101663.22;;;7.22;100.00
53619;BME280;68717;53.040;18.488;2024-02-21T00:53:02;101665.97;;;7.20;100.00
53619;BME280;68717;53.040;18.488;2024-02-21T00:53:15;101662.38;;;7.21;100.00
53619;BME280;68717;53.040;18.488;2024-02-21T00:53:29;101665.91;;;7.22;100.00
53619;BME280;68717;53.040;18.488;2024-02-21T00:53:42;101669.53;;;7.21;100.00
53619;BME280;68717;53.040;18.488;2024-02-21T00:53:55;101665.91;;;7.22;100.00
53619;BME280;68717;53.040;18.488;2024-02-21T00:54:07;101667.72;;;7.21;100.00
53619;BME280;68717;53.040;18.488;2024-02-21T00:54:20;101665.03;;;7.21;100.00
53619;BME280;68717;53.040;18.488;2024-02-21T00:54:33;101669.53;;;7.21;100.00
53619;BME280;68717;53.040;18.488;2024-02-21T00:55:02;101667.59;;;7.23;100.00
53619;BME280;68717;53.040;18.488;2024-02-21T00:55:15;101663.16;;;7.23;100.00
53619;BME280;68717;53.040;18.488;2024-02-21T00:55:29;101664.09;;;7.22;100.00
53619;BME280;68717;53.040;18.488;2024-02-21T00:55:42;101670.28;;;7.23;100.00
53619;BME280;68717;53.040;18.488;2024-02-21T00:55:56;101666.75;;;7.22;100.00
53619;BME280;68717;53.040;18.488;2024-02-21T00:56:09;101664.94;;;7.23;100.00
53619;BME280;68717;53.040;18.488;2024-02-21T00:56:22;101661.41;;;7.22;100.00
53619;BME280;68717;53.040;18.488;2024-02-21T00:56:35;101659.59;;;7.23;100.00
53619;BME280;68717;53.040;18.488;2024-02-21T00:56:48;101661.41;;;7.22;100.00
53619;BME280;68717;53.040;18.488;2024-02-21T00:57:01;101659.59;;;7.23;100.00
53619;BME280;68717;53.040;18.488;2024-02-21T00:57:14;101663.22;;;7.22;100.00
53619;BME280;68717;53.040;18.488;2024-02-21T00:57:27;101658.75;;;7.22;100.00
53619;BME280;68717;53.040;18.488;2024-02-21T00:57:41;101660.56;;;7.22;100.00
53619;BME280;68717;53.040;18.488;2024-02-21T00:57:54;101657.91;;;7.22;100.00
53619;BME280;68717;53.040;18.488;2024-02-21T00:58:07;101659.59;;;7.23;100.00
53619;BME280;68717;53.040;18.488;2024-02-21T00:58:20;101657.91;;;7.22;100.00
53619;BME280;68717;53.040;18.488;2024-02-21T00:58:33;101665.91;;;7.22;100.00
53619;BME280;68717;53.040;18.488;2024-02-21T00:58:46;101666.75;;;7.22;100.00
53619;BME280;68717;53.040;18.488;2024-02-21T00:58:59;101656.94;;;7.23;100.00
53619;BME280;68717;53.040;18.488;2024-02-21T00:59:12;101662.28;;;7.23;100.00
53619;BME280;68717;53.040;18.488;2024-02-21T00:59:25;101664.94;;;7.23;100.00
53619;BME280;68717;53.040;18.488;2024-02-21T00:59:38;101664.94;;;7.23;100.00
53619;BME280;68717;53.040;18.488;2024-02-21T00:59:54;101662.28;;;7.23;100.00
53619;BME280;68717;53.040;18.488;2024-02-21T01:00:08;101660.50;;;7.23;100.00
53619;BME280;68717;53.040;18.488;2024-02-21T01:00:21;101664.09;;;7.22;100.00
53619;BME280;68717;53.040;18.488;2024-02-21T01:00:35;101664.00;;;7.24;100.00
53619;BME280;68717;53.040;18.488;2024-02-21T01:00:48;101664.94;;;7.23;100.00
53619;BME280;68717;53.040;18.488;2024-02-21T01:01:02;101664.84;;;7.24;100.00
53619;BME280;68717;53.040;18.488;2024-02-21T01:01:21;101664.00;;;7.24;100.00
53619;BME280;68717;53.040;18.488;2024-02-21T01:01:35;101654.38;;;7.21;100.00
53619;BME280;68717;53.040;18.488;2024-02-21T01:01:48;101664.94;;;7.23;100.00
53619;BME280;68717;53.040;18.488;2024-02-21T01:02:01;101656.00;;;7.24;100.00
53619;BME280;68717;53.040;18.488;2024-02-21T01:02:14;101664.94;;;7.23;100.00
53619;BME280;68717;53.040;18.488;2024-02-21T01:02:27;101664.94;;;7.23;100.00
53619;BME280;68717;53.040;18.488;2024-02-21T01:02:41;101663.22;;;7.22;100.00
53619;BME280;68717;53.040;18.488;2024-02-21T01:02:55;101660.56;;;7.22;100.00
53619;BME280;68717;53.040;18.488;2024-02-21T01:03:08;101661.53;;;7.21;100.00
53619;BME280;68717;53.040;18.488;2024-02-21T01:03:21;101666.88;;;7.21;100.00
53619;BME280;68717;53.040;18.488;2024-02-21T01:03:34;101657.03;;;7.21;100.00
53619;BME280;68717;53.040;18.488;2024-02-21T01:03:47;101656.19;;;7.21;100.00
53619;BME280;68717;53.040;18.488;2024-02-21T01:04:01;101655.31;;;7.20;100.00
53619;BME280;68717;53.040;18.488;2024-02-21T01:04:14;101657.97;;;7.20;100.00
53619;BME280;68717;53.040;18.488;2024-02-21T01:04:27;101655.31;;;7.20;100.00
53619;BME280;68717;53.040;18.488;2024-02-21T01:04:41;101660.66;;;7.20;100.00
53619;BME280;68717;53.040;18.488;2024-02-21T01:04:55;101650.84;;;7.21;100.00
53619;BME280;68717;53.040;18.488;2024-02-21T01:05:08;101650.84;;;7.21;100.00
53619;BME280;68717;53.040;18.488;2024-02-21T01:05:21;101655.31;;;7.20;100.00
53619;BME280;68717;53.040;18.488;2024-02-21T01:05:35;101648.19;;;7.21;100.00
53619;BME280;68717;53.040;18.488;2024-02-21T01:05:48;101651.72;;;7.21;100.00
53619;BME280;68717;53.040;18.488;2024-02-21T01:06:01;101649.91;;;7.22;100.00
53619;BME280;68717;53.040;18.488;2024-02-21T01:06:14;101652.56;;;7.22;100.00
53619;BME280;68717;53.040;18.488;2024-02-21T01:06:27;101649.91;;;7.22;100.00
53619;BME280;68717;53.040;18.488;2024-02-21T01:06:41;101655.22;;;7.22;100.00
53619;BME280;68717;53.040;18.488;2024-02-21T01:06:56;101641.91;;;7.22;100.00
53619;BME280;68717;53.040;18.488;2024-02-21T01:07:09;101648.09;;;7.22;100.00
53619;BME280;68717;53.040;18.488;2024-02-21T01:07:22;101652.56;;;7.22;100.00
53619;BME280;68717;53.040;18.488;2024-02-21T01:07:35;101649.91;;;7.22;100.00
53619;BME280;68717;53.040;18.488;2024-02-21T01:07:48;101648.94;;;7.23;100.00
53619;BME280;68717;53.040;18.488;2024-02-21T01:08:01;101655.22;;;7.22;100.00
53619;BME280;68717;53.040;18.488;2024-02-21T01:08:16;101648.09;;;7.22;100.00
53619;BME280;68717;53.040;18.488;2024-02-21T01:08:29;101647.22;;;7.22;100.00
53619;BME280;68717;53.040;18.488;2024-02-21T01:08:41;101642.84;;;7.21;100.00
53619;BME280;68717;53.040;18.488;2024-02-21T01:08:54;101640.19;;;7.21;100.00
53619;BME280;68717;53.040;18.488;2024-02-21T01:09:07;101647.31;;;7.20;100.00
53619;BME280;68717;53.040;18.488;2024-02-21T01:09:20;101644.66;;;7.20;100.00
53619;BME280;68717;53.040;18.488;2024-02-21T01:09:33;101643.78;;;7.20;100.00
53619;BME280;68717;53.040;18.488;2024-02-21T01:09:47;101642.94;;;7.19;100.00
53619;BME280;68717;53.040;18.488;2024-02-21T01:10:00;101641.19;;;7.18;100.00
53619;BME280;68717;53.040;18.488;2024-02-21T01:10:14;101641.13;;;7.20;100.00